createdAt,value
2018-08-12T00:01:51.961Z,66.70
2018-08-12T00:06:55.068Z,66.70
2018-08-12T00:11:58.044Z,66.60
2018-08-12T00:17:01.039Z,66.60
2018-08-12T00:22:04.037Z,66.70
2018-08-12T00:27:07.132Z,66.60
2018-08-12T00:32:10.192Z,66.80
2018-08-12T00:37:13.165Z,66.70
2018-08-12T00:42:16.150Z,66.90
2018-08-12T00:47:25.855Z,66.90
2018-08-12T00:52:28.846Z,66.80
2018-08-12T00:57:31.825Z,66.70
2018-08-12T01:02:34.809Z,66.80
2018-08-12T01:07:37.950Z,66.70
2018-08-12T01:12:40.936Z,66.90
2018-08-12T01:17:44.047Z,66.90
2018-08-12T01:22:47.090Z,66.70
2018-08-12T01:27:50.128Z,66.80
2018-08-12T01:32:53.207Z,66.60
2018-08-12T01:37:56.195Z,66.70
2018-08-12T01:42:59.173Z,66.50
2018-08-12T01:48:02.161Z,66.70
2018-08-12T01:53:05.149Z,66.40
2018-08-12T01:58:08.403Z,66.40
2018-08-12T02:03:11.381Z,66.40
2018-08-12T02:08:14.361Z,66.60
2018-08-12T02:13:17.416Z,66.60
2018-08-12T02:18:20.688Z,66.60
2018-08-12T02:23:23.673Z,66.80
2018-08-12T02:28:26.669Z,67.30
2018-08-12T02:33:29.649Z,67.60
2018-08-12T02:38:32.615Z,66.80
2018-08-12T02:43:35.601Z,66.60
2018-08-12T02:48:38.640Z,66.80
2018-08-12T02:53:41.685Z,66.90
2018-08-12T02:58:44.665Z,66.90
2018-08-12T03:03:47.777Z,66.90
2018-08-12T03:08:50.777Z,66.80
2018-08-12T03:13:53.820Z,66.80
2018-08-12T03:18:56.797Z,66.90
2018-08-12T03:23:59.761Z,66.50
2018-08-12T03:29:02.788Z,66.40
2018-08-12T03:34:05.848Z,67.20
2018-08-12T03:39:10.069Z,66.50
2018-08-12T03:44:13.065Z,66.10
2018-08-12T03:49:16.077Z,66.20
2018-08-12T03:54:19.206Z,66.80
2018-08-12T03:59:22.273Z,66.80
2018-08-12T04:04:25.265Z,66.00
2018-08-12T04:09:28.350Z,66.10
2018-08-12T04:14:31.330Z,66.10
2018-08-12T04:19:34.304Z,66.30
2018-08-12T04:24:37.359Z,66.40
2018-08-12T04:29:40.429Z,66.50
2018-08-12T04:34:43.468Z,66.40
2018-08-12T04:39:46.455Z,66.40
2018-08-12T04:44:49.481Z,66.40
2018-08-12T04:49:52.585Z,66.40
2018-08-12T04:54:55.593Z,66.30
2018-08-12T04:59:58.568Z,66.90
2018-08-12T05:05:01.550Z,66.00
2018-08-12T05:10:05.525Z,66.00
2018-08-12T05:15:09.413Z,66.10
2018-08-12T05:20:12.505Z,66.60
2018-08-12T05:25:15.509Z,66.10
2018-08-12T05:30:18.692Z,66.60
2018-08-12T05:35:21.841Z,66.90
2018-08-12T05:40:24.897Z,67.00
2018-08-12T05:45:27.881Z,66.90
2018-08-12T05:50:30.885Z,67.20
2018-08-12T05:55:33.887Z,67.40
2018-08-12T06:00:36.910Z,67.50
2018-08-12T06:05:39.932Z,67.70
2018-08-12T06:10:42.924Z,67.70
2018-08-12T06:15:46.269Z,67.80
2018-08-12T06:20:49.426Z,67.80
2018-08-12T06:25:52.442Z,68.30
2018-08-12T06:30:55.433Z,67.90
2018-08-12T06:35:58.497Z,68.30
2018-08-12T06:41:01.483Z,68.50
2018-08-12T06:46:04.484Z,68.60
2018-08-12T06:51:07.646Z,68.40
2018-08-12T06:56:10.634Z,68.60
2018-08-12T07:01:13.617Z,68.50
2018-08-12T07:06:16.586Z,68.50
2018-08-12T07:11:19.648Z,68.40
2018-08-12T07:16:22.734Z,68.60
2018-08-12T07:21:25.801Z,68.40
2018-08-12T07:26:28.860Z,68.30
2018-08-12T07:31:31.836Z,68.80
2018-08-12T07:36:34.817Z,68.80
2018-08-12T07:41:37.858Z,68.80
2018-08-12T07:46:41.501Z,69.40
2018-08-12T07:51:44.480Z,69.80
2018-08-12T07:56:47.529Z,70.10
2018-08-12T08:01:50.777Z,69.50
2018-08-12T08:06:53.781Z,68.50
2018-08-12T08:11:56.757Z,68.20
2018-08-12T08:16:59.754Z,67.80
2018-08-12T08:22:02.784Z,67.70
2018-08-12T08:27:05.765Z,67.40
2018-08-12T08:32:08.962Z,67.60
2018-08-12T08:37:12.005Z,67.30
2018-08-12T08:42:14.985Z,67.00
2018-08-12T08:47:18.006Z,67.00
2018-08-12T08:52:21.042Z,66.20
2018-08-12T08:57:24.061Z,66.90
2018-08-12T09:02:27.069Z,66.70
2018-08-12T09:07:31.065Z,67.00
2018-08-12T09:12:34.077Z,66.60
2018-08-12T09:17:37.388Z,67.90
2018-08-12T09:22:40.786Z,67.00
2018-08-12T09:27:43.789Z,66.40
2018-08-12T09:32:47.297Z,67.00
2018-08-12T09:37:50.357Z,66.50
2018-08-12T09:42:53.455Z,66.10
2018-08-12T09:47:56.545Z,66.10
2018-08-12T09:52:59.560Z,68.80
2018-08-12T09:58:02.812Z,67.60
2018-08-12T10:03:05.913Z,66.50
2018-08-12T10:08:09.215Z,65.90
2018-08-12T10:13:12.377Z,65.80
2018-08-12T10:18:15.377Z,66.70
2018-08-12T10:23:18.569Z,66.00
2018-08-12T10:28:21.740Z,65.80
2018-08-12T10:33:24.943Z,64.40
2018-08-12T10:38:28.037Z,65.90
2018-08-12T10:43:31.109Z,65.60
2018-08-12T10:48:34.125Z,66.30
2018-08-12T10:53:37.151Z,67.80
2018-08-12T10:58:40.333Z,67.00
2018-08-12T11:03:43.340Z,67.80
2018-08-12T11:08:46.361Z,66.60
2018-08-12T11:13:49.429Z,68.10
2018-08-12T11:18:52.600Z,66.30
2018-08-12T11:23:55.729Z,67.40
2018-08-12T11:28:58.813Z,67.50
2018-08-12T11:34:02.173Z,68.10
2018-08-12T11:39:07.819Z,68.80
2018-08-12T11:44:10.869Z,69.00
2018-08-12T11:49:13.965Z,69.00
2018-08-12T11:54:17.002Z,69.20
2018-08-12T11:59:20.249Z,67.80
2018-08-12T12:04:23.337Z,68.60
2018-08-12T12:09:26.330Z,68.80
2018-08-12T12:14:29.393Z,67.50
2018-08-12T12:19:32.453Z,67.00
2018-08-12T12:24:35.504Z,66.60
2018-08-12T12:29:38.670Z,68.00
2018-08-12T12:34:41.777Z,67.70
2018-08-12T12:39:44.861Z,67.50
2018-08-12T12:44:47.994Z,68.00
2018-08-12T12:49:51.164Z,68.10
2018-08-12T12:54:54.289Z,67.20
2018-08-12T12:59:57.313Z,67.00
2018-08-12T13:05:00.797Z,67.50
2018-08-12T13:10:04.566Z,66.80
2018-08-12T13:15:08.669Z,66.70
2018-08-12T13:20:14.933Z,67.00
2018-08-12T13:25:19.701Z,66.10
2018-08-12T13:30:22.887Z,66.10
2018-08-12T13:35:25.982Z,66.60
2018-08-12T13:40:28.979Z,67.10
2018-08-12T13:45:31.997Z,66.90
2018-08-12T13:50:34.972Z,67.10
2018-08-12T13:55:37.949Z,65.80
2018-08-12T14:00:41.042Z,66.70
2018-08-12T14:05:45.053Z,67.20
2018-08-12T14:10:48.063Z,67.20
2018-08-12T14:15:51.165Z,67.30
2018-08-12T14:20:54.247Z,67.50
2018-08-12T14:25:57.217Z,67.60
2018-08-12T14:31:00.245Z,67.70
2018-08-12T14:36:03.265Z,67.70
2018-08-12T14:41:06.317Z,67.70
2018-08-12T14:46:09.349Z,68.00
2018-08-12T14:51:12.489Z,68.30
2018-08-12T14:56:15.509Z,68.50
2018-08-12T15:01:18.593Z,68.50
2018-08-12T15:06:21.894Z,69.40
2018-08-12T15:11:25.389Z,68.70
2018-08-12T15:16:28.405Z,68.60
2018-08-12T15:21:31.809Z,69.10
2018-08-12T15:26:34.843Z,68.80
2018-08-12T15:31:37.846Z,54.30
2018-08-12T15:36:41.073Z,52.50
2018-08-12T15:41:44.053Z,44.80
2018-08-12T15:46:47.100Z,46.10
2018-08-12T15:51:50.150Z,43.20
2018-08-12T15:56:53.543Z,45.60
2018-08-12T16:01:56.526Z,44.40
2018-08-12T16:06:59.533Z,43.70
2018-08-12T16:12:02.537Z,45.10
2018-08-12T16:17:05.864Z,44.60
2018-08-12T16:22:08.949Z,42.90
2018-08-12T16:27:12.057Z,43.40
2018-08-12T16:32:15.033Z,43.00
2018-08-12T16:37:18.068Z,43.70
2018-08-12T16:42:21.110Z,44.80
2018-08-12T16:47:24.124Z,44.30
2018-08-12T16:52:27.264Z,44.30
2018-08-12T16:57:30.257Z,44.40
2018-08-12T17:02:33.407Z,45.10
2018-08-12T17:07:36.497Z,45.70
2018-08-12T17:12:39.817Z,45.50
2018-08-12T17:17:42.843Z,44.90
2018-08-12T17:22:46.205Z,45.80
2018-08-12T17:27:49.534Z,46.60
2018-08-12T17:32:52.653Z,47.10
2018-08-12T17:37:55.812Z,48.10
2018-08-12T17:42:58.788Z,48.30
2018-08-12T17:48:01.788Z,48.90
2018-08-12T17:53:04.797Z,49.10
2018-08-12T17:58:07.954Z,49.50
2018-08-12T18:03:11.096Z,50.10
2018-08-12T18:08:14.177Z,50.20
2018-08-12T18:13:17.270Z,50.30
2018-08-12T18:18:20.351Z,51.20
2018-08-12T18:23:23.661Z,51.60
2018-08-12T18:28:26.815Z,53.50
2018-08-12T18:33:29.812Z,53.70
2018-08-12T18:38:32.807Z,54.00
2018-08-12T18:43:35.809Z,54.30
2018-08-12T18:48:38.896Z,54.50
2018-08-12T18:53:41.924Z,56.20
2018-08-12T18:58:45.016Z,57.20
2018-08-12T19:03:48.280Z,57.40
2018-08-12T19:08:51.363Z,58.30
2018-08-12T19:13:54.837Z,59.30
2018-08-12T19:18:57.893Z,61.20
2018-08-12T19:24:00.936Z,61.20
2018-08-12T19:29:03.958Z,59.50
2018-08-12T19:34:07.221Z,60.90
2018-08-12T19:39:11.749Z,63.50
2018-08-12T19:44:14.764Z,64.80
2018-08-12T19:49:17.835Z,65.20
2018-08-12T19:54:20.937Z,66.00
2018-08-12T19:59:24.133Z,68.00
2018-08-12T20:04:27.170Z,66.90
2018-08-12T20:09:30.260Z,68.10
2018-08-12T20:14:33.261Z,69.20
2018-08-12T20:19:36.361Z,68.60
2018-08-12T20:24:39.757Z,67.70
2018-08-12T20:29:43.256Z,69.30
2018-08-12T20:34:46.284Z,70.60
2018-08-12T20:39:49.460Z,70.80
2018-08-12T20:44:52.549Z,71.60
2018-08-12T20:49:55.550Z,71.60
2018-08-12T20:54:58.529Z,73.40
2018-08-12T21:00:01.537Z,73.70
2018-08-12T21:05:04.552Z,73.00
2018-08-12T21:10:07.725Z,74.40
2018-08-12T21:15:10.957Z,73.50
2018-08-12T21:20:13.968Z,73.90
2018-08-12T21:25:16.966Z,72.40
2018-08-12T21:30:20.002Z,71.20
2018-08-12T21:35:23.225Z,71.60
2018-08-12T21:40:26.263Z,74.00
2018-08-12T21:45:29.257Z,74.70
2018-08-12T21:50:32.257Z,75.30
2018-08-12T21:55:35.260Z,75.20
2018-08-12T22:00:38.269Z,76.50
2018-08-12T22:05:41.317Z,76.80
2018-08-12T22:10:44.337Z,77.80
2018-08-12T22:15:47.353Z,78.80
2018-08-12T22:20:50.426Z,79.30
2018-08-12T22:25:53.481Z,79.40
2018-08-12T22:30:56.489Z,79.60
2018-08-12T22:35:59.514Z,80.50
2018-08-12T22:41:02.516Z,81.20
2018-08-12T22:46:05.538Z,79.60
2018-08-12T22:51:08.895Z,83.70
2018-08-12T22:56:12.025Z,86.50
2018-08-12T23:01:15.065Z,90.40
2018-08-12T23:06:18.191Z,84.40
2018-08-12T23:11:21.533Z,90.70
2018-08-12T23:16:59.412Z,91.60
2018-08-12T23:22:02.470Z,97.80
2018-08-12T23:27:05.428Z,97.80
2018-08-12T23:32:08.471Z,97.70
2018-08-12T23:37:11.615Z,97.90
2018-08-12T23:42:14.661Z,97.90
2018-08-12T23:47:17.710Z,99.90
2018-08-12T23:52:20.747Z,94.90
2018-08-12T23:57:24.116Z,92.60
